createdAt,value
2023-01-23T00:01:04.277Z,43.60
2023-01-23T00:03:32.408Z,27.80
2023-01-23T00:06:00.828Z,39.60
2023-01-23T00:08:30.471Z,37.60
2023-01-23T00:10:58.517Z,41.40
2023-01-23T00:13:26.912Z,32.80
2023-01-23T00:15:55.458Z,35.40
2023-01-23T00:18:23.652Z,34.40
2023-01-23T00:20:52.050Z,39.60
2023-01-23T00:23:20.134Z,40.40
2023-01-23T00:25:49.620Z,41.00
2023-01-23T00:28:17.667Z,43.00
2023-01-23T00:30:46.223Z,40.80
2023-01-23T00:33:14.458Z,39.20
2023-01-23T00:35:42.564Z,33.40
2023-01-23T00:38:10.853Z,35.80
2023-01-23T00:40:39.550Z,38.40
2023-01-23T00:43:09.451Z,41.80
2023-01-23T00:45:38.193Z,39.80
2023-01-23T00:48:06.719Z,35.80
2023-01-23T00:50:34.880Z,46.20
2023-01-23T00:53:04.610Z,41.00
2023-01-23T00:55:32.713Z,33.40
2023-01-23T00:58:01.619Z,36.60
2023-01-23T01:00:31.356Z,34.00
2023-01-23T01:02:59.598Z,23.20
2023-01-23T01:05:28.693Z,20.60
2023-01-23T01:07:56.815Z,41.60
2023-01-23T01:10:29.552Z,37.00
2023-01-23T01:12:57.897Z,34.40
2023-01-23T01:15:26.451Z,30.40
2023-01-23T01:17:56.298Z,41.40
2023-01-23T01:20:26.192Z,35.20
2023-01-23T01:22:54.741Z,29.60
2023-01-23T01:25:23.497Z,35.40
2023-01-23T01:27:51.829Z,36.60
2023-01-23T01:30:20.512Z,45.60
2023-01-23T01:32:49.711Z,33.60
2023-01-23T01:35:19.281Z,35.20
2023-01-23T01:37:47.631Z,45.00
2023-01-23T01:40:17.737Z,41.80
2023-01-23T01:42:47.040Z,35.80
2023-01-23T01:45:34.128Z,41.00
2023-01-23T01:48:02.600Z,35.60
2023-01-23T01:50:32.296Z,36.20
2023-01-23T01:53:00.406Z,47.20
2023-01-23T01:55:28.565Z,39.00
2023-01-23T01:57:56.660Z,25.00
2023-01-23T02:00:24.855Z,38.60
2023-01-23T02:02:54.844Z,44.00
2023-01-23T02:05:25.591Z,40.60
2023-01-23T02:07:57.869Z,42.40
2023-01-23T02:10:26.159Z,42.60
2023-01-23T02:12:54.421Z,36.00
2023-01-23T02:15:24.045Z,42.00
2023-01-23T02:17:53.016Z,40.20
2023-01-23T02:20:41.434Z,43.20
2023-01-23T02:23:15.132Z,35.80
2023-01-23T02:25:51.516Z,41.20
2023-01-23T02:28:19.827Z,41.20
2023-01-23T02:30:48.104Z,44.00
2023-01-23T02:33:30.990Z,43.00
2023-01-23T02:35:59.169Z,37.60
2023-01-23T02:38:28.729Z,44.20
2023-01-23T02:41:00.324Z,40.40
2023-01-23T02:43:35.333Z,38.40
2023-01-23T02:46:07.271Z,40.00
2023-01-23T02:48:35.560Z,40.60
2023-01-23T02:51:04.472Z,37.20
2023-01-23T02:53:32.657Z,44.20
2023-01-23T02:56:02.345Z,35.40
2023-01-23T02:58:47.698Z,43.20
2023-01-23T03:01:15.997Z,40.40
2023-01-23T03:03:44.225Z,42.40
2023-01-23T03:06:12.765Z,31.00
2023-01-23T03:08:47.796Z,41.60
2023-01-23T03:11:18.995Z,41.80
2023-01-23T03:13:47.373Z,48.00
2023-01-23T03:16:16.117Z,39.60
2023-01-23T03:18:53.919Z,31.80
2023-01-23T03:21:23.098Z,40.80
2023-01-23T03:23:51.414Z,44.80
2023-01-23T03:26:21.196Z,39.60
2023-01-23T03:29:09.797Z,43.20
2023-01-23T03:31:38.054Z,30.60
2023-01-23T03:34:07.649Z,35.60
2023-01-23T03:36:37.535Z,36.40
2023-01-23T03:39:23.725Z,36.60
2023-01-23T03:41:53.550Z,38.00
2023-01-23T03:44:23.396Z,54.80
2023-01-23T03:46:53.402Z,36.60
2023-01-23T03:49:21.810Z,22.60
2023-01-23T03:51:57.203Z,41.20
2023-01-23T03:54:25.724Z,39.60
2023-01-23T03:56:56.578Z,43.20
2023-01-23T03:59:44.955Z,31.60
2023-01-23T04:02:13.231Z,41.60
2023-01-23T04:04:41.692Z,32.60
2023-01-23T04:07:10.164Z,43.60
2023-01-23T04:09:40.538Z,30.60
2023-01-23T04:12:10.550Z,44.80
2023-01-23T04:14:42.818Z,49.20
2023-01-23T04:17:12.518Z,38.00
2023-01-23T04:19:40.798Z,38.20
2023-01-23T04:22:10.142Z,37.40
2023-01-23T04:24:46.838Z,40.60
2023-01-23T04:27:16.680Z,40.40
2023-01-23T04:29:48.017Z,31.80
2023-01-23T04:32:16.509Z,46.00
2023-01-23T04:34:47.599Z,48.60
2023-01-23T04:37:16.483Z,27.60
2023-01-23T04:39:44.646Z,54.60
2023-01-23T04:42:13.088Z,32.80
2023-01-23T04:45:09.770Z,45.00
2023-01-23T04:47:44.137Z,36.00
2023-01-23T04:50:14.887Z,51.60
2023-01-23T04:52:46.825Z,38.00
2023-01-23T04:55:15.294Z,41.20
2023-01-23T04:57:45.313Z,29.80
2023-01-23T05:00:25.216Z,47.20
2023-01-23T05:02:53.925Z,44.40
2023-01-23T05:05:22.429Z,36.20
2023-01-23T05:07:53.360Z,40.60
2023-01-23T05:10:21.835Z,48.40
2023-01-23T05:12:51.002Z,39.40
2023-01-23T05:15:20.830Z,48.20
2023-01-23T05:17:50.524Z,37.40
2023-01-23T05:20:19.139Z,35.80
2023-01-23T05:22:53.438Z,48.80
2023-01-23T05:25:29.015Z,50.20
2023-01-23T05:27:59.995Z,49.60
2023-01-23T05:30:28.694Z,48.60
2023-01-23T05:33:13.786Z,32.60
2023-01-23T05:35:42.305Z,27.60
2023-01-23T05:38:10.963Z,28.50
2023-01-23T05:40:39.235Z,41.00
2023-01-23T05:43:16.510Z,35.60
2023-01-23T05:46:23.109Z,29.40
2023-01-23T05:48:54.851Z,32.20
2023-01-23T05:51:23.616Z,26.80
2023-01-23T05:53:54.216Z,31.00
2023-01-23T05:56:23.109Z,28.00
2023-01-23T05:59:14.486Z,30.60
2023-01-23T06:01:58.943Z,28.40
2023-01-23T06:04:53.238Z,26.00
2023-01-23T06:07:36.447Z,25.40
2023-01-23T06:10:10.014Z,27.20
2023-01-23T06:12:38.526Z,24.25
2023-01-23T06:15:08.091Z,23.80
2023-01-23T06:17:37.019Z,19.00
2023-01-23T06:20:08.183Z,23.80
2023-01-23T06:22:37.004Z,22.75
2023-01-23T06:25:10.268Z,26.40
2023-01-23T06:27:38.625Z,37.00
2023-01-23T06:30:10.415Z,31.00
2023-01-23T06:32:43.864Z,25.40
2023-01-23T06:35:14.901Z,26.80
2023-01-23T06:37:45.050Z,30.00
2023-01-23T06:40:18.279Z,21.00
2023-01-23T06:43:04.694Z,33.25
2023-01-23T06:45:32.998Z,21.50
2023-01-23T06:48:01.367Z,15.50
2023-01-23T06:50:31.349Z,23.00
2023-01-23T06:52:59.679Z,24.80
2023-01-23T06:55:29.179Z,13.60
2023-01-23T06:57:58.612Z,30.40
2023-01-23T07:00:28.304Z,31.00
2023-01-23T07:02:59.367Z,29.60
2023-01-23T07:05:27.807Z,25.00
2023-01-23T07:07:58.838Z,20.40
2023-01-23T07:10:27.638Z,24.20
2023-01-23T07:12:55.816Z,33.80
2023-01-23T07:15:24.074Z,26.40
2023-01-23T07:17:52.269Z,32.80
2023-01-23T07:20:21.237Z,27.40
2023-01-23T07:22:57.854Z,33.20
2023-01-23T07:25:27.045Z,29.80
2023-01-23T07:27:55.207Z,33.20
2023-01-23T07:30:23.491Z,36.60
2023-01-23T07:32:51.747Z,32.00
2023-01-23T07:35:46.330Z,33.20
2023-01-23T07:39:02.687Z,39.00
2023-01-23T07:41:32.396Z,30.40
2023-01-23T07:44:04.167Z,30.60
2023-01-23T07:46:32.500Z,40.80
2023-01-23T07:49:00.638Z,39.80
2023-01-23T07:51:29.155Z,41.20
2023-01-23T07:53:57.270Z,22.00
2023-01-23T07:56:25.410Z,36.80
2023-01-23T07:58:57.448Z,32.60
2023-01-23T08:01:25.677Z,34.40
2023-01-23T08:03:54.437Z,33.00
2023-01-23T08:06:22.680Z,35.40
2023-01-23T08:08:51.093Z,19.80
2023-01-23T08:11:19.686Z,28.20
2023-01-23T08:13:50.143Z,28.80
2023-01-23T08:16:21.325Z,23.60
2023-01-23T08:18:49.634Z,24.60
2023-01-23T08:21:18.014Z,20.60
2023-01-23T08:23:46.680Z,35.40
2023-01-23T08:26:15.947Z,20.40
2023-01-23T08:28:44.159Z,18.80
2023-01-23T08:31:13.508Z,22.80
2023-01-23T08:33:43.450Z,22.80
2023-01-23T08:36:13.373Z,24.20
2023-01-23T08:38:41.619Z,19.40
2023-01-23T08:41:12.014Z,19.80
2023-01-23T08:43:41.599Z,23.20
2023-01-23T08:46:10.445Z,21.20
2023-01-23T08:48:38.827Z,15.60
2023-01-23T08:51:09.619Z,20.40
2023-01-23T08:53:38.097Z,21.00
2023-01-23T08:56:07.091Z,21.00
2023-01-23T08:58:35.892Z,18.00
2023-01-23T09:01:04.043Z,19.00
2023-01-23T09:03:32.299Z,19.80
2023-01-23T09:06:02.365Z,22.40
2023-01-23T09:08:31.947Z,14.40
2023-01-23T09:11:01.383Z,23.80
2023-01-23T09:13:29.787Z,21.60
2023-01-23T09:15:58.082Z,24.40
2023-01-23T09:18:26.300Z,18.60
2023-01-23T09:20:55.007Z,18.40
2023-01-23T09:23:23.523Z,19.80
2023-01-23T09:25:53.109Z,20.80
2023-01-23T09:28:21.252Z,16.00
2023-01-23T09:30:49.486Z,24.20
2023-01-23T09:33:18.380Z,19.80
2023-01-23T09:35:46.577Z,18.80
2023-01-23T09:38:14.820Z,26.20
2023-01-23T09:40:47.521Z,21.40
2023-01-23T09:43:18.214Z,24.80
2023-01-23T09:45:52.346Z,28.80
2023-01-23T09:48:22.972Z,21.00
2023-01-23T09:50:56.504Z,27.60
2023-01-23T09:53:28.010Z,33.80
2023-01-23T09:56:00.724Z,35.60
2023-01-23T09:58:34.626Z,42.00
2023-01-23T10:01:02.782Z,22.60
2023-01-23T10:03:33.112Z,36.60
2023-01-23T10:06:17.873Z,33.40
2023-01-23T10:08:52.505Z,36.20
2023-01-23T10:11:25.490Z,34.80
2023-01-23T10:14:04.668Z,17.00
2023-01-23T10:16:50.333Z,25.20
2023-01-23T10:19:24.700Z,13.60
2023-01-23T10:21:57.554Z,27.00
2023-01-23T10:24:40.138Z,30.80
2023-01-23T10:27:20.204Z,41.40
2023-01-23T10:29:51.655Z,31.80
2023-01-23T10:32:24.840Z,39.60
2023-01-23T10:34:58.545Z,25.40
2023-01-23T10:37:33.871Z,24.40
2023-01-23T10:40:04.493Z,21.60
2023-01-23T10:42:32.872Z,19.40
2023-01-23T10:45:02.377Z,26.60
2023-01-23T10:47:36.959Z,36.00
2023-01-23T10:50:06.506Z,42.40
2023-01-23T10:52:36.783Z,38.00
2023-01-23T10:55:06.328Z,29.60
2023-01-23T10:57:39.615Z,34.80
2023-01-23T11:00:21.410Z,31.40
2023-01-23T11:36:28.325Z,38.40
2023-01-23T11:39:00.027Z,30.20
2023-01-23T11:41:30.770Z,36.20
2023-01-23T11:43:58.850Z,35.00
2023-01-23T11:46:36.515Z,34.40
2023-01-23T11:49:11.325Z,30.00
2023-01-23T11:51:48.058Z,37.00
2023-01-23T11:54:22.373Z,38.40
2023-01-23T11:56:57.576Z,36.40
2023-01-23T11:59:39.094Z,34.20
2023-01-23T12:02:18.673Z,28.60
2023-01-23T12:05:01.544Z,37.00
2023-01-23T12:07:35.347Z,34.40
2023-01-23T12:10:11.199Z,36.60
2023-01-23T12:12:47.671Z,42.00
2023-01-23T12:15:19.825Z,35.80
2023-01-23T12:17:54.761Z,38.00
2023-01-23T12:20:28.062Z,38.60
2023-01-23T12:23:14.368Z,39.40
2023-01-23T12:25:43.994Z,33.00
2023-01-23T12:28:21.446Z,35.60
2023-01-23T12:31:06.846Z,39.00
2023-01-23T12:33:50.485Z,28.40
2023-01-23T12:36:28.627Z,44.80
2023-01-23T12:39:04.517Z,37.60
2023-01-23T12:41:38.165Z,39.20
2023-01-23T12:44:11.309Z,39.20
2023-01-23T12:46:43.348Z,34.40
2023-01-23T12:49:20.584Z,41.80
2023-01-23T12:51:52.198Z,45.60
2023-01-23T12:54:26.273Z,36.20
2023-01-23T12:56:55.379Z,23.60
2023-01-23T12:59:27.271Z,37.60
2023-01-23T13:02:00.631Z,38.60
2023-01-23T13:04:40.853Z,39.40
2023-01-23T13:07:16.662Z,42.60
2023-01-23T13:09:52.871Z,40.40
2023-01-23T13:12:22.991Z,31.40
2023-01-23T13:15:17.270Z,26.20
2023-01-23T13:17:43.355Z,40.60
2023-01-23T13:20:40.263Z,44.20
2023-01-23T13:23:25.827Z,36.80
2023-01-23T13:26:08.842Z,33.80
2023-01-23T13:28:46.474Z,35.40
2023-01-23T13:31:28.888Z,33.60
2023-01-23T13:34:10.204Z,39.00
2023-01-23T13:36:43.566Z,30.40
2023-01-23T13:39:22.837Z,37.80
2023-01-23T13:41:52.631Z,43.40
2023-01-23T13:44:35.857Z,43.40
2023-01-23T14:21:42.930Z,39.60
2023-01-23T14:24:21.888Z,30.80
2023-01-23T14:26:50.704Z,36.20
2023-01-23T14:29:23.172Z,37.80
2023-01-23T14:31:52.246Z,35.40
2023-01-23T14:34:22.555Z,41.00
2023-01-23T14:36:52.743Z,35.20
2023-01-23T14:39:22.532Z,15.20
2023-01-23T14:41:51.790Z,35.00
2023-01-23T14:44:23.081Z,35.00
2023-01-23T14:46:53.290Z,33.20
2023-01-23T14:49:25.685Z,39.60
2023-01-23T14:51:58.111Z,31.80
2023-01-23T14:54:32.558Z,36.00
2023-01-23T14:57:04.618Z,35.20
2023-01-23T14:59:35.234Z,35.00
2023-01-23T15:02:13.230Z,40.60
2023-01-23T15:05:02.920Z,29.40
2023-01-23T15:07:33.039Z,44.00
2023-01-23T15:10:01.345Z,42.40
2023-01-23T15:12:38.685Z,32.60
2023-01-23T15:15:22.226Z,28.80
2023-01-23T15:17:52.664Z,28.40
2023-01-23T15:20:37.131Z,37.80
2023-01-23T15:23:31.784Z,38.00
2023-01-23T15:26:26.616Z,42.20
2023-01-23T15:28:56.052Z,31.20
2023-01-23T15:31:35.480Z,56.20
2023-01-23T15:34:19.943Z,47.80
2023-01-23T15:36:50.054Z,42.80
2023-01-23T15:39:22.505Z,37.80
2023-01-23T15:41:55.697Z,30.40
2023-01-23T15:44:26.483Z,28.60
2023-01-23T15:46:56.534Z,34.20
2023-01-23T15:49:26.598Z,24.20
2023-01-23T15:51:56.766Z,33.20
2023-01-23T15:54:26.613Z,36.40
2023-01-23T15:57:07.161Z,38.40
2023-01-23T15:59:38.881Z,32.80
2023-01-23T16:02:18.145Z,29.60
2023-01-23T16:04:53.792Z,33.00
2023-01-23T16:07:24.695Z,34.20
2023-01-23T16:09:55.267Z,40.40
2023-01-23T16:12:31.324Z,41.60
2023-01-23T16:14:59.835Z,44.20
2023-01-23T16:17:28.082Z,34.40
2023-01-23T16:19:56.226Z,35.00
2023-01-23T16:22:27.443Z,37.20
2023-01-23T16:24:56.913Z,28.40
2023-01-23T16:27:27.859Z,40.60
2023-01-23T16:29:56.705Z,39.60
2023-01-23T16:32:25.377Z,33.40
2023-01-23T16:34:53.931Z,44.00
2023-01-23T16:37:24.114Z,47.00
2023-01-23T16:39:52.473Z,31.80
2023-01-23T16:42:22.902Z,40.80
2023-01-23T16:44:54.599Z,46.20
2023-01-23T16:47:23.425Z,38.80
2023-01-23T16:49:54.045Z,33.80
2023-01-23T16:52:25.984Z,40.20
2023-01-23T16:54:54.960Z,39.40
2023-01-23T16:57:23.436Z,36.20
2023-01-23T16:59:56.531Z,43.00
2023-01-23T17:02:28.953Z,35.80
2023-01-23T17:04:57.507Z,41.00
2023-01-23T17:07:26.090Z,36.80
2023-01-23T17:09:55.792Z,33.00
2023-01-23T17:12:27.758Z,45.80
2023-01-23T17:14:59.969Z,40.00
2023-01-23T17:17:30.631Z,44.40
2023-01-23T17:19:59.054Z,30.00
2023-01-23T17:22:28.465Z,39.40
2023-01-23T17:24:56.994Z,48.00
2023-01-23T17:27:25.359Z,52.80
2023-01-23T17:29:53.783Z,35.00
2023-01-23T17:32:29.709Z,39.40
2023-01-23T17:34:58.541Z,45.20
2023-01-23T17:37:26.826Z,45.40
2023-01-23T17:39:55.550Z,55.60
2023-01-23T17:42:24.017Z,38.00
2023-01-23T17:44:52.423Z,41.60
2023-01-23T17:47:21.139Z,40.60
2023-01-23T17:49:54.640Z,49.20
2023-01-23T17:52:25.503Z,37.40
2023-01-23T17:54:55.743Z,34.00
2023-01-23T17:57:24.056Z,42.20
2023-01-23T17:59:55.494Z,40.20
2023-01-23T18:02:28.896Z,46.80
2023-01-23T18:04:58.794Z,49.80
2023-01-23T18:07:27.789Z,41.80
2023-01-23T18:09:57.009Z,39.60
2023-01-23T18:12:30.684Z,50.80
2023-01-23T18:15:04.890Z,43.60
2023-01-23T18:17:37.285Z,47.60
2023-01-23T18:20:16.529Z,47.00
2023-01-23T18:22:44.907Z,45.40
2023-01-23T18:25:14.990Z,44.20
2023-01-23T18:27:44.269Z,54.80
2023-01-23T18:30:30.162Z,43.60
2023-01-23T18:33:27.330Z,44.40
2023-01-23T18:36:06.315Z,49.20
2023-01-23T18:38:40.259Z,41.20
2023-01-23T18:41:13.043Z,44.00
2023-01-23T18:43:45.236Z,46.00
2023-01-23T18:46:15.341Z,28.80
2023-01-23T18:48:44.655Z,43.20
2023-01-23T18:51:21.825Z,47.60
2023-01-23T18:53:56.790Z,42.60
2023-01-23T18:56:29.862Z,46.80
2023-01-23T18:59:11.574Z,50.80
2023-01-23T19:01:44.949Z,50.60
2023-01-23T19:04:15.915Z,43.80
2023-01-23T19:06:46.979Z,46.40
2023-01-23T19:09:18.969Z,40.40
2023-01-23T19:12:02.419Z,54.00
2023-01-23T19:14:55.635Z,43.60
2023-01-23T19:17:32.880Z,50.00
2023-01-23T19:20:05.233Z,47.00
2023-01-23T19:22:43.136Z,41.20
2023-01-23T19:25:17.570Z,54.60
2023-01-23T19:27:52.556Z,39.60
2023-01-23T19:30:22.617Z,49.00
2023-01-23T19:32:51.846Z,44.20
2023-01-23T19:35:20.520Z,52.80
2023-01-23T19:37:50.857Z,35.20
2023-01-23T19:40:19.350Z,45.60
2023-01-23T19:42:58.736Z,48.20
2023-01-23T19:45:36.111Z,48.40
2023-01-23T19:48:04.747Z,54.60
2023-01-23T19:50:33.079Z,43.40
2023-01-23T19:53:02.882Z,60.00
2023-01-23T19:55:32.493Z,50.60
2023-01-23T19:58:00.943Z,53.80
2023-01-23T20:00:32.501Z,26.60
2023-01-23T20:03:01.064Z,45.80
2023-01-23T20:05:29.736Z,53.00
2023-01-23T20:07:59.104Z,43.80
2023-01-23T20:10:29.083Z,56.20
2023-01-23T20:12:57.524Z,52.60
2023-01-23T20:15:27.070Z,44.40
2023-01-23T20:17:55.285Z,64.00
2023-01-23T20:20:24.493Z,48.40
2023-01-23T20:22:53.057Z,38.60
2023-01-23T20:25:21.714Z,61.20
2023-01-23T20:27:51.506Z,56.20
2023-01-23T20:30:21.071Z,54.40
2023-01-23T20:32:49.826Z,41.40
2023-01-23T20:35:18.139Z,47.00
2023-01-23T20:37:46.368Z,52.20
2023-01-23T20:40:14.601Z,39.60
2023-01-23T20:42:42.878Z,61.20
2023-01-23T20:45:13.543Z,57.20
2023-01-23T20:47:41.613Z,25.20
2023-01-23T20:50:10.650Z,50.20
2023-01-23T20:52:56.441Z,51.20
2023-01-23T20:55:25.105Z,59.60
2023-01-23T20:58:10.694Z,50.60
2023-01-23T21:00:40.852Z,52.40
2023-01-23T21:03:08.951Z,52.00
2023-01-23T21:05:37.958Z,51.40
2023-01-23T21:08:06.249Z,52.80
2023-01-23T21:10:34.543Z,54.40
2023-01-23T21:13:02.685Z,43.60
2023-01-23T21:15:33.145Z,45.80
2023-01-23T21:18:02.979Z,47.00
2023-01-23T21:20:31.229Z,44.60
2023-01-23T21:22:59.440Z,49.20
2023-01-23T21:25:27.635Z,43.40
2023-01-23T21:27:55.817Z,40.20
2023-01-23T21:30:23.988Z,49.00
2023-01-23T21:32:52.180Z,58.00
2023-01-23T21:35:22.114Z,49.60
2023-01-23T21:37:50.459Z,50.80
2023-01-23T21:40:18.857Z,56.20
2023-01-23T21:42:47.208Z,60.40
2023-01-23T21:45:15.665Z,47.00
2023-01-23T21:47:43.916Z,43.40
2023-01-23T21:50:12.647Z,62.00
2023-01-23T21:52:42.175Z,49.60
2023-01-23T21:55:10.524Z,52.20
2023-01-23T21:57:38.609Z,59.80
2023-01-23T22:00:24.478Z,31.00
2023-01-23T22:02:52.718Z,43.00
2023-01-23T22:05:21.092Z,40.40
2023-01-23T22:07:51.346Z,53.80
2023-01-23T22:10:19.707Z,54.60
2023-01-23T22:12:47.889Z,52.00
2023-01-23T22:15:16.109Z,54.40
2023-01-23T22:17:45.875Z,56.00
2023-01-23T22:20:14.019Z,49.00
2023-01-23T22:22:42.167Z,54.00
2023-01-23T22:25:11.974Z,60.40
2023-01-23T22:27:40.531Z,51.00
2023-01-23T22:30:09.447Z,34.80
2023-01-23T22:32:37.588Z,45.40
2023-01-23T22:35:05.928Z,47.80
2023-01-23T22:37:34.019Z,42.60
2023-01-23T22:40:02.364Z,51.60
2023-01-23T22:42:32.752Z,54.60
2023-01-23T22:45:00.912Z,59.20
2023-01-23T22:47:29.067Z,50.40
2023-01-23T22:49:57.181Z,46.60
2023-01-23T22:52:25.365Z,52.20
2023-01-23T22:54:53.541Z,60.00
2023-01-23T22:57:21.900Z,50.40
2023-01-23T22:59:51.431Z,51.60
2023-01-23T23:02:19.942Z,40.00
2023-01-23T23:04:50.122Z,59.00
2023-01-23T23:07:18.328Z,46.00
2023-01-23T23:09:46.494Z,45.00
2023-01-23T23:12:14.720Z,43.00
2023-01-23T23:14:42.948Z,39.60
2023-01-23T23:17:12.537Z,47.40
2023-01-23T23:19:40.753Z,49.20
2023-01-23T23:22:09.148Z,26.60
2023-01-23T23:24:37.941Z,49.60
2023-01-23T23:27:06.132Z,48.20
2023-01-23T23:29:34.429Z,45.60
2023-01-23T23:32:02.766Z,50.00
2023-01-23T23:34:32.522Z,42.20
2023-01-23T23:37:00.679Z,18.40
2023-01-23T23:39:28.854Z,48.80
2023-01-23T23:41:57.272Z,44.20
2023-01-23T23:44:25.533Z,53.60
2023-01-23T23:46:53.840Z,57.20
2023-01-23T23:49:23.163Z,63.20
2023-01-23T23:51:52.790Z,44.60
2023-01-23T23:54:20.914Z,47.40
2023-01-23T23:56:49.514Z,46.00
2023-01-23T23:59:18.369Z,51.20
